createdAt,value
2018-02-15T00:00:59.073Z,24.4
2018-02-15T00:10:58.846Z,26.7
2018-02-15T00:20:58.742Z,27.7
2018-02-15T00:30:59.589Z,29.3
2018-02-15T00:40:59.343Z,26.3
2018-02-15T00:50:59.079Z,25.7
2018-02-15T01:00:58.938Z,25.8
2018-02-15T01:10:58.733Z,25.7
2018-02-15T01:20:58.598Z,25.6
2018-02-15T01:30:59.310Z,26.6
2018-02-15T01:40:59.030Z,25.1
2018-02-15T01:50:58.777Z,27.9
2018-02-15T02:00:58.472Z,27.5
2018-02-15T02:10:59.250Z,27.3
2018-02-15T02:20:59.102Z,29.8
2018-02-15T02:30:58.879Z,29.3
2018-02-15T02:40:58.614Z,27.5
2018-02-15T02:50:59.370Z,28.4
2018-02-15T03:00:59.110Z,28.8
2018-02-15T03:10:58.907Z,28.3
2018-02-15T03:20:58.773Z,28.1
2018-02-15T03:30:59.480Z,29.4
2018-02-15T03:40:59.187Z,27.6
2018-02-15T03:50:58.940Z,29.6
2018-02-15T04:00:58.661Z,28.3
2018-02-15T04:10:59.377Z,28.8
2018-02-15T04:20:59.202Z,29.8
2018-02-15T04:30:58.912Z,28.7
2018-02-15T04:40:58.618Z,27.9
2018-02-15T04:50:59.294Z,27.0
2018-02-15T05:00:59.050Z,26.6
2018-02-15T05:10:58.784Z,26.4
2018-02-15T05:20:58.584Z,27.1
2018-02-15T05:30:58.905Z,27.8
2018-02-15T05:40:58.608Z,27.2
2018-02-15T05:50:59.325Z,30.5
2018-02-15T06:00:59.038Z,30.9
2018-02-15T06:10:58.664Z,30.3
2018-02-15T06:20:59.516Z,28.4
2018-02-15T06:30:59.228Z,28.1
2018-02-15T06:40:58.966Z,32.4
2018-02-15T06:50:58.699Z,29.9
2018-02-15T07:00:59.414Z,28.0
2018-02-15T07:10:59.148Z,30.4
2018-02-15T07:20:58.977Z,31.2
2018-02-15T07:30:58.708Z,31.3
2018-02-15T07:40:59.451Z,31.8
2018-02-15T07:50:59.180Z,28.5
2018-02-15T08:00:58.908Z,26.6
2018-02-15T08:10:58.640Z,28.1
2018-02-15T08:20:59.438Z,26.8
2018-02-15T08:30:59.172Z,32.8
2018-02-15T08:40:58.911Z,28.4
2018-02-15T08:50:58.657Z,27.2
2018-02-15T09:00:59.341Z,30.8
2018-02-15T09:10:59.116Z,26.3
2018-02-15T09:20:58.969Z,29.8
2018-02-15T09:30:58.707Z,30.7
2018-02-15T09:40:59.412Z,28.1
2018-02-15T09:50:59.178Z,28.3
2018-02-15T10:00:58.927Z,27.0
2018-02-15T10:10:58.697Z,27.9
2018-02-15T10:20:58.578Z,28.4
2018-02-15T10:30:59.386Z,31.0
2018-02-15T10:40:59.159Z,28.1
2018-02-15T10:50:58.943Z,27.9
2018-02-15T11:00:58.737Z,26.0
2018-02-15T11:10:59.490Z,28.2
2018-02-15T11:20:59.424Z,34.8
2018-02-15T11:30:59.179Z,28.8
2018-02-15T11:40:58.892Z,30.1
2018-02-15T11:50:58.708Z,27.5
2018-02-15T12:00:59.392Z,28.0
2018-02-15T12:10:59.191Z,27.7
2018-02-15T12:20:59.040Z,30.0
2018-02-15T12:30:58.799Z,30.8
2018-02-15T12:40:58.603Z,35.5
2018-02-15T12:50:59.352Z,34.6
2018-02-15T13:00:59.085Z,38.4
2018-02-15T13:10:58.828Z,36.7
2018-02-15T13:20:58.789Z,33.2
2018-02-15T13:30:58.543Z,33.2
2018-02-15T13:40:59.288Z,31.9
2018-02-15T13:50:59.004Z,30.7
2018-02-15T14:00:58.681Z,30.6
2018-02-15T14:10:59.409Z,30.8
2018-02-15T14:20:59.232Z,33.0
2018-02-15T14:30:58.973Z,32.9
2018-02-15T14:40:58.725Z,32.5
2018-02-15T14:50:59.477Z,32.4
2018-02-15T15:00:59.215Z,34.6
2018-02-15T15:10:58.910Z,31.5
2018-02-15T15:20:58.735Z,34.7
2018-02-15T15:30:59.514Z,40.9
2018-02-15T15:40:59.385Z,33.9
2018-02-15T15:50:59.136Z,34.3
2018-02-15T16:00:58.809Z,32.7
2018-02-15T16:10:58.583Z,37.8
2018-02-15T16:20:59.424Z,39.4
2018-02-15T16:30:59.206Z,38.9
2018-02-15T16:40:58.942Z,40.6
2018-02-15T16:50:58.711Z,42.6
2018-02-15T17:00:59.533Z,44.1
2018-02-15T17:10:59.271Z,48.3
2018-02-15T17:20:59.460Z,52.0
2018-02-15T17:30:59.255Z,53.3
2018-02-15T17:40:58.952Z,53.6
2018-02-15T17:50:58.707Z,51.6
2018-02-15T18:00:59.481Z,53.1
2018-02-15T18:10:59.289Z,57.4
2018-02-15T18:20:59.165Z,60.2
2018-02-15T18:30:58.941Z,58.9
2018-02-15T18:40:58.727Z,58.8
2018-02-15T18:50:58.628Z,57.2
2018-02-15T19:00:59.521Z,68.2
2018-02-15T19:10:59.398Z,64.7
2018-02-15T19:20:59.403Z,69.3
2018-02-15T19:30:59.313Z,60.2
2018-02-15T19:40:59.208Z,65.4
2018-02-15T19:50:59.124Z,80.7
2018-02-15T20:00:59.058Z,64.1
2018-02-15T20:10:59.028Z,64.8
2018-02-15T20:20:59.086Z,62.7
2018-02-15T20:30:59.040Z,57.8
2018-02-15T20:40:58.927Z,59.8
2018-02-15T20:50:58.927Z,64.0
2018-02-15T21:00:58.978Z,59.4
2018-02-15T21:10:58.949Z,60.5
2018-02-15T21:20:59.119Z,61.7
2018-02-15T21:30:59.018Z,64.5
2018-02-15T21:40:58.759Z,62.3
2018-02-15T21:50:59.480Z,60.6
2018-02-15T22:00:59.144Z,75.5
2018-02-15T22:10:58.875Z,63.6
2018-02-15T22:20:58.647Z,61.1
2018-02-15T22:30:59.354Z,65.6
2018-02-15T22:40:59.112Z,62.7
2018-02-15T22:50:58.807Z,60.0
2018-02-15T23:00:58.569Z,64.4
2018-02-15T23:10:59.284Z,64.6
2018-02-15T23:20:59.120Z,58.6
2018-02-15T23:30:58.845Z,57.6
2018-02-15T23:40:58.600Z,56.1
2018-02-15T23:50:59.338Z,64.3
